Time;durP1;ratioP1;P1;durP2;ratioP2;P2;SDS_P1;SDS_P2;PMS_P1;PMS_P2;Temp;Humidity;BMP_temperature;BMP_pressure;BME280_temperature;BME280_humidity;BME280_pressure;Samples;Min_cycle;Max_cycle;Signal;HPM_P1;HPM_P2
2023/02/12 00:00:56;;;;;;;36.00;26.03;;;9.80;99.90;;;;;;5071388;28;20441;-67
2023/02/12 00:03:22;;;;;;;34.30;24.70;;;9.80;99.90;;;;;;5074961;28;20210;-67
2023/02/12 00:05:47;;;;;;;32.30;24.10;;;9.80;99.90;;;;;;5076601;28;20190;-67
2023/02/12 00:08:15;;;;;;;38.60;25.70;;;9.80;99.90;;;;;;5074111;28;20679;-67
2023/02/12 00:10:44;;;;;;;39.67;26.00;;;9.80;99.90;;;;;;5073601;28;20216;-67
2023/02/12 00:13:10;;;;;;;35.23;25.00;;;9.80;99.90;;;;;;5074651;28;20442;-67
2023/02/12 00:15:42;;;;;;;38.60;26.70;;;9.80;99.90;;;;;;5072950;28;21794;-67
2023/02/12 00:18:08;;;;;;;38.27;26.70;;;9.80;99.90;;;;;;5068431;28;20444;-67
2023/02/12 00:20:35;;;;;;;34.00;25.17;;;9.80;99.90;;;;;;5066464;28;20852;-66
2023/02/12 00:23:01;;;;;;;39.73;25.70;;;9.80;99.90;;;;;;5073512;28;21119;-67
2023/02/12 00:25:26;;;;;;;34.73;25.77;;;9.80;99.90;;;;;;5073230;28;20524;-67
2023/02/12 00:27:52;;;;;;;35.97;26.60;;;9.80;99.90;;;;;;5074613;28;20202;-66
2023/02/12 00:30:17;;;;;;;38.63;26.10;;;9.80;99.90;;;;;;5073916;28;20194;-66
2023/02/12 00:32:44;;;;;;;33.10;24.90;;;9.80;99.90;;;;;;5074511;28;20198;-67
2023/02/12 00:35:10;;;;;;;38.20;26.80;;;9.80;99.90;;;;;;5070498;28;20214;-67
2023/02/12 00:37:35;;;;;;;36.53;27.63;;;9.80;99.90;;;;;;5072596;28;20471;-67
2023/02/12 00:40:01;;;;;;;38.03;26.83;;;9.80;99.90;;;;;;5071919;28;20182;-66
2023/02/12 00:42:27;;;;;;;36.30;25.60;;;9.90;99.90;;;;;;5072217;28;20194;-66
2023/02/12 00:44:52;;;;;;;34.30;25.50;;;9.80;99.90;;;;;;5068655;28;20674;-67
2023/02/12 00:47:18;;;;;;;34.50;26.90;;;9.80;99.90;;;;;;5054899;28;20639;-67
2023/02/12 00:49:43;;;;;;;40.40;25.03;;;9.80;99.90;;;;;;5073925;28;20195;-66
2023/02/12 00:52:09;;;;;;;39.10;28.67;;;9.80;99.90;;;;;;5071864;28;20285;-66
2023/02/12 00:54:34;;;;;;;38.70;26.63;;;9.80;99.90;;;;;;5071576;28;20323;-67
2023/02/12 00:57:00;;;;;;;36.63;28.50;;;9.80;99.90;;;;;;5072192;28;20206;-67
2023/02/12 00:59:26;;;;;;;38.57;28.03;;;9.80;99.90;;;;;;5072131;28;20190;-67
2023/02/12 01:01:53;;;;;;;39.97;27.50;;;9.80;99.90;;;;;;5070386;28;20186;-66
2023/02/12 01:04:19;;;;;;;38.10;25.90;;;9.80;99.90;;;;;;5070518;28;20220;-66
2023/02/12 01:06:45;;;;;;;36.97;27.83;;;9.80;99.90;;;;;;5069629;28;20472;-66
2023/02/12 01:09:11;;;;;;;37.23;28.80;;;9.80;99.90;;;;;;5049606;28;20448;-66
2023/02/12 01:11:37;;;;;;;37.77;26.87;;;9.80;99.90;;;;;;5074193;28;20448;-66
2023/02/12 01:14:03;;;;;;;39.53;28.30;;;9.80;99.90;;;;;;5073978;28;20241;-66
2023/02/12 01:16:32;;;;;;;43.90;28.00;;;9.80;99.90;;;;;;5067454;28;20236;-65
2023/02/12 01:18:58;;;;;;;40.03;28.37;;;9.80;99.90;;;;;;5072005;28;20436;-66
2023/02/12 01:21:26;;;;;;;36.00;26.40;;;9.80;99.90;;;;;;5055833;28;20505;-66
2023/02/12 01:23:52;;;;;;;38.93;25.73;;;9.80;99.90;;;;;;5069446;28;20204;-66
2023/02/12 01:26:19;;;;;;;35.13;25.33;;;9.80;99.90;;;;;;5071406;28;20529;-66
2023/02/12 01:28:49;;;;;;;34.90;26.87;;;9.80;99.90;;;;;;5069081;28;20194;-65
2023/02/12 01:31:18;;;;;;;37.90;27.30;;;9.80;99.90;;;;;;5070410;28;20531;-66
2023/02/12 01:33:47;;;;;;;38.83;27.73;;;9.80;99.90;;;;;;5072532;28;20468;-66
2023/02/12 01:36:12;;;;;;;34.90;26.17;;;9.80;99.90;;;;;;5054732;28;20626;-66
2023/02/12 01:38:38;;;;;;;36.53;27.47;;;9.80;99.90;;;;;;5069048;28;20437;-65
2023/02/12 01:41:07;;;;;;;33.70;26.50;;;9.80;99.90;;;;;;5070624;28;20656;-66
2023/02/12 01:43:36;;;;;;;33.20;23.80;;;9.80;99.90;;;;;;5074408;28;20571;-66
2023/02/12 01:46:03;;;;;;;36.67;26.77;;;9.80;99.90;;;;;;5065649;28;20460;-66
2023/02/12 01:48:33;;;;;;;33.43;26.07;;;9.80;99.90;;;;;;5069971;28;20436;-66
2023/02/12 01:51:01;;;;;;;34.90;26.47;;;9.80;99.90;;;;;;5071692;28;20448;-66
2023/02/12 01:53:32;;;;;;;35.93;26.87;;;9.70;99.90;;;;;;5071851;28;20459;-66
2023/02/12 01:55:59;;;;;;;35.07;24.43;;;9.80;99.90;;;;;;5070683;28;20969;-66
2023/02/12 01:58:27;;;;;;;36.90;26.87;;;9.70;99.90;;;;;;5068118;28;21863;-66
2023/02/12 02:00:53;;;;;;;35.13;26.30;;;9.70;99.90;;;;;;5073717;28;20425;-66
2023/02/12 02:03:19;;;;;;;30.83;24.90;;;9.70;99.90;;;;;;5075851;28;20597;-66
2023/02/12 02:06:00;;;;;;;34.60;25.97;;;9.70;99.90;;;;;;5076910;28;20210;-66
2023/02/12 02:08:25;;;;;;;40.10;25.83;;;9.70;99.90;;;;;;5077582;28;20920;-66
2023/02/12 02:10:51;;;;;;;33.87;25.03;;;9.70;99.90;;;;;;5074235;28;20424;-66
2023/02/12 02:16:13;;;;;;;29.63;24.40;;;9.70;99.90;;;;;;5077767;28;20220;-66
2023/02/12 02:18:51;;;;;;;29.53;23.93;;;9.60;99.90;;;;;;5076606;28;20436;-67
2023/02/12 02:21:21;;;;;;;35.17;25.30;;;9.60;99.90;;;;;;5074732;28;20494;-66
2023/02/12 02:24:02;;;;;;;37.33;26.00;;;9.60;99.90;;;;;;5074135;28;20926;-67
2023/02/12 02:26:58;;;;;;;31.07;23.40;;;9.60;99.90;;;;;;5073657;28;20585;-67
2023/02/12 02:29:54;;;;;;;37.90;24.43;;;9.60;99.90;;;;;;5076601;28;20728;-67
2023/02/12 02:32:42;;;;;;;33.10;26.20;;;9.60;99.90;;;;;;5073992;28;21149;-67
2023/02/12 02:35:18;;;;;;;28.87;22.70;;;9.60;99.90;;;;;;5074408;28;20556;-67
2023/02/12 02:37:53;;;;;;;31.50;22.97;;;9.60;99.90;;;;;;5075221;28;20447;-66
2023/02/12 02:40:28;;;;;;;30.20;23.47;;;9.60;99.90;;;;;;5055364;28;20446;-67
2023/02/12 02:43:06;;;;;;;33.00;24.37;;;9.60;99.90;;;;;;5073080;28;20437;-67
2023/02/12 02:45:54;;;;;;;37.07;24.10;;;9.60;99.90;;;;;;5074839;28;20441;-67
2023/02/12 02:48:26;;;;;;;30.60;23.27;;;9.60;99.90;;;;;;5074142;28;20445;-66
2023/02/12 02:50:56;;;;;;;33.70;23.90;;;9.60;99.90;;;;;;5076771;28;20448;-66
2023/02/12 02:53:32;;;;;;;33.80;24.60;;;9.60;99.90;;;;;;5073206;28;20453;-67
2023/02/12 02:56:00;;;;;;;35.27;24.13;;;9.60;99.90;;;;;;5070633;28;20467;-67
2023/02/12 02:58:34;;;;;;;31.00;24.73;;;9.60;99.90;;;;;;5055891;28;20461;-67
2023/02/12 03:01:20;;;;;;;36.17;25.00;;;9.60;99.90;;;;;;5071509;28;20444;-67
2023/02/12 03:04:21;;;;;;;37.80;25.70;;;9.60;99.90;;;;;;5075514;28;20428;-67
2023/02/12 03:06:54;;;;;;;31.30;24.63;;;9.60;99.90;;;;;;5044819;28;21313;-66
2023/02/12 03:09:29;;;;;;;30.87;22.53;;;9.60;99.90;;;;;;5075457;28;20440;-66
2023/02/12 03:12:00;;;;;;;31.50;24.10;;;9.60;99.90;;;;;;5077700;28;20468;-67
2023/02/12 03:14:31;;;;;;;30.40;24.57;;;9.60;99.90;;;;;;5076138;28;20475;-67
2023/02/12 03:17:30;;;;;;;31.80;23.70;;;9.60;99.90;;;;;;5075022;28;20519;-66
2023/02/12 03:20:07;;;;;;;31.90;24.40;;;9.60;99.90;;;;;;5070055;28;20444;-66
2023/02/12 03:22:39;;;;;;;29.27;22.23;;;9.60;99.90;;;;;;5072996;28;20450;-67
2023/02/12 03:25:15;;;;;;;31.03;24.43;;;9.60;99.90;;;;;;5069396;28;20530;-66
2023/02/12 03:27:45;;;;;;;32.67;24.50;;;9.60;99.90;;;;;;5071967;28;20468;-67
2023/02/12 03:30:12;;;;;;;28.90;23.00;;;9.60;99.90;;;;;;5070073;28;20498;-67
2023/02/12 03:33:13;;;;;;;29.23;22.83;;;9.50;99.90;;;;;;5061721;28;20424;-66
2023/02/12 03:35:54;;;;;;;31.17;24.17;;;9.50;99.90;;;;;;5072795;28;20521;-66
2023/02/12 03:38:44;;;;;;;30.47;23.47;;;9.50;99.90;;;;;;5070425;28;20487;-66
2023/02/12 03:41:36;;;;;;;31.63;22.50;;;9.50;99.90;;;;;;5058778;28;20438;-67
2023/02/12 03:44:14;;;;;;;31.40;23.27;;;9.50;99.90;;;;;;5075881;28;20779;-67
2023/02/12 03:46:46;;;;;;;29.83;22.47;;;9.50;99.90;;;;;;5069817;28;20451;-67
2023/02/12 03:49:27;;;;;;;30.37;22.43;;;9.50;99.90;;;;;;5073120;28;20440;-66
2023/02/12 03:51:54;;;;;;;32.63;22.67;;;9.50;99.90;;;;;;5072929;28;20475;-66
2023/02/12 03:54:20;;;;;;;30.27;22.60;;;9.50;99.90;;;;;;5072392;28;20468;-66
2023/02/12 03:56:58;;;;;;;27.63;22.00;;;9.50;99.90;;;;;;5073260;28;20988;-67
2023/02/12 03:59:25;;;;;;;27.30;21.30;;;9.50;99.90;;;;;;5072217;28;20432;-66
2023/02/12 04:01:53;;;;;;;27.83;22.40;;;9.50;99.90;;;;;;5071525;28;20465;-66
2023/02/12 04:04:19;;;;;;;29.83;22.30;;;9.50;99.90;;;;;;5074419;28;20424;-67
2023/02/12 04:06:48;;;;;;;31.20;22.63;;;9.50;99.90;;;;;;5075783;28;20476;-67
2023/02/12 04:09:14;;;;;;;33.03;22.70;;;9.50;99.90;;;;;;5071696;28;20941;-66
2023/02/12 04:11:58;;;;;;;31.73;23.60;;;9.50;99.90;;;;;;5071652;28;20476;-67
2023/02/12 04:14:51;;;;;;;28.40;22.37;;;9.50;99.90;;;;;;5071237;28;20473;-67
2023/02/12 04:17:20;;;;;;;27.00;22.47;;;9.50;99.90;;;;;;5073733;28;20468;-66
2023/02/12 04:19:57;;;;;;;28.17;22.30;;;9.40;99.90;;;;;;5073722;28;20444;-66
2023/02/12 04:22:43;;;;;;;29.07;23.37;;;9.40;99.90;;;;;;5054109;28;20428;-67
2023/02/12 04:25:12;;;;;;;31.17;24.20;;;9.40;99.90;;;;;;5075281;28;20838;-67
2023/02/12 04:27:54;;;;;;;32.30;24.23;;;9.40;99.90;;;;;;5071028;28;20459;-66
2023/02/12 04:30:36;;;;;;;32.53;24.60;;;9.40;99.90;;;;;;5073036;28;20460;-66
2023/02/12 04:33:05;;;;;;;31.37;24.50;;;9.40;99.90;;;;;;5070942;28;20444;-66
2023/02/12 04:35:48;;;;;;;33.43;25.70;;;9.40;99.90;;;;;;5073277;28;20493;-67
2023/02/12 04:38:22;;;;;;;33.67;26.17;;;9.40;99.90;;;;;;5070313;28;20543;-66
2023/02/12 04:40:48;;;;;;;34.43;26.23;;;9.30;99.90;;;;;;5074251;28;20527;-66
2023/02/12 04:43:14;;;;;;;36.83;25.83;;;9.30;99.90;;;;;;5067518;28;20574;-66
2023/02/12 04:45:39;;;;;;;30.03;24.60;;;9.30;99.90;;;;;;5074418;28;20482;-66
2023/02/12 04:48:05;;;;;;;38.87;25.70;;;9.30;99.90;;;;;;5073951;28;20218;-66
2023/02/12 04:50:40;;;;;;;30.43;24.43;;;9.30;99.90;;;;;;5074404;28;20186;-66
2023/02/12 04:53:06;;;;;;;35.93;24.87;;;9.30;99.90;;;;;;5070432;28;20889;-66
2023/02/12 04:55:32;;;;;;;36.03;26.10;;;9.30;99.90;;;;;;5074162;28;20503;-67
2023/02/12 04:57:57;;;;;;;30.40;23.40;;;9.30;99.90;;;;;;5071795;28;20198;-67
2023/02/12 05:00:23;;;;;;;40.40;25.77;;;9.30;99.90;;;;;;5072351;28;20224;-66
2023/02/12 05:02:48;;;;;;;37.17;25.10;;;9.30;99.90;;;;;;5073022;28;20197;-67
2023/02/12 05:05:14;;;;;;;33.40;24.97;;;9.30;99.90;;;;;;5070999;28;20194;-67
2023/02/12 05:07:40;;;;;;;33.40;24.57;;;9.30;99.90;;;;;;5069419;28;20206;-67
2023/02/12 05:10:06;;;;;;;35.73;24.90;;;9.30;99.90;;;;;;5054300;28;20190;-67
2023/02/12 05:12:31;;;;;;;39.53;25.10;;;9.30;99.90;;;;;;5074176;28;20195;-66
2023/02/12 05:14:57;;;;;;;34.17;25.17;;;9.30;99.90;;;;;;5071484;28;20483;-66
2023/02/12 05:17:23;;;;;;;33.17;23.90;;;9.30;99.90;;;;;;5071359;28;20324;-67
2023/02/12 05:19:49;;;;;;;32.23;22.80;;;9.30;99.90;;;;;;5054127;28;20774;-66
2023/02/12 05:22:15;;;;;;;34.67;24.20;;;9.30;99.90;;;;;;5070808;28;20449;-66
2023/02/12 05:24:40;;;;;;;35.47;24.27;;;9.30;99.90;;;;;;5052978;28;20220;-66
2023/02/12 05:27:07;;;;;;;34.10;25.67;;;9.30;99.90;;;;;;5070611;28;20232;-66
2023/02/12 05:29:33;;;;;;;36.33;26.80;;;9.30;99.90;;;;;;5072713;28;20198;-67
2023/02/12 05:31:59;;;;;;;33.50;25.60;;;9.30;99.90;;;;;;5072766;28;20519;-66
2023/02/12 05:34:24;;;;;;;36.10;25.67;;;9.30;99.90;;;;;;5075770;28;20522;-66
2023/02/12 05:36:50;;;;;;;31.37;24.70;;;9.30;99.90;;;;;;5061749;28;20202;-67
2023/02/12 05:39:16;;;;;;;33.63;25.10;;;9.30;99.90;;;;;;5077684;28;20231;-67
2023/02/12 05:41:41;;;;;;;38.10;27.60;;;9.30;99.90;;;;;;5074456;28;20197;-67
2023/02/12 05:44:10;;;;;;;37.37;26.37;;;9.30;99.90;;;;;;5073695;28;20325;-67
2023/02/12 05:46:35;;;;;;;36.77;26.40;;;9.30;99.90;;;;;;5073740;28;21650;-66
2023/02/12 05:49:01;;;;;;;35.37;26.60;;;9.20;99.90;;;;;;5074848;28;20820;-66
2023/02/12 05:51:27;;;;;;;32.47;25.30;;;9.20;99.90;;;;;;5078980;28;20190;-67
2023/02/12 05:54:02;;;;;;;37.30;27.50;;;9.20;99.90;;;;;;5057008;28;20671;-66
2023/02/12 05:56:33;;;;;;;39.07;25.60;;;9.20;99.90;;;;;;5074348;28;20455;-66
2023/02/12 05:59:11;;;;;;;34.03;25.40;;;9.30;99.90;;;;;;5075725;28;20913;-67
2023/02/12 06:01:42;;;;;;;39.63;26.70;;;9.30;99.90;;;;;;5074844;28;20812;-66
2023/02/12 06:04:14;;;;;;;37.47;27.40;;;9.30;99.90;;;;;;5059113;28;20437;-66
2023/02/12 06:06:40;;;;;;;38.77;25.70;;;9.30;99.90;;;;;;5078813;28;20520;-66
2023/02/12 06:09:07;;;;;;;30.77;25.57;;;9.30;99.90;;;;;;5075518;28;20447;-66
2023/02/12 06:11:32;;;;;;;34.40;25.40;;;9.30;99.90;;;;;;5075999;28;20448;-66
2023/02/12 06:14:01;;;;;;;33.97;25.23;;;9.30;99.90;;;;;;5073372;28;20530;-67
2023/02/12 06:16:27;;;;;;;35.13;25.13;;;9.20;99.90;;;;;;5076920;28;20711;-66
2023/02/12 06:18:55;;;;;;;33.83;25.10;;;9.30;99.90;;;;;;5060567;28;20432;-67
2023/02/12 06:21:21;;;;;;;33.53;25.23;;;9.20;99.90;;;;;;5074492;28;21004;-66
2023/02/12 06:23:48;;;;;;;35.37;25.73;;;9.20;99.90;;;;;;5059985;28;20950;-67
2023/02/12 06:26:13;;;;;;;38.60;27.90;;;9.30;99.90;;;;;;5057942;28;21060;-67
2023/02/12 06:28:39;;;;;;;33.57;26.77;;;9.30;99.90;;;;;;5072414;28;20447;-66
2023/02/12 06:31:25;;;;;;;32.10;23.40;;;9.30;99.90;;;;;;5057275;28;21787;-66
2023/02/12 06:33:51;;;;;;;36.30;25.80;;;9.30;99.90;;;;;;5074759;28;20269;-66
2023/02/12 06:36:18;;;;;;;38.63;28.00;;;9.30;99.90;;;;;;5061070;28;20493;-67
2023/02/12 06:38:44;;;;;;;36.47;25.33;;;9.30;99.90;;;;;;5078638;28;20428;-67
2023/02/12 06:41:10;;;;;;;35.70;24.97;;;9.30;99.90;;;;;;5073195;28;21673;-67
2023/02/12 06:43:36;;;;;;;30.53;23.90;;;9.30;99.90;;;;;;5074464;28;20444;-66
2023/02/12 06:46:03;;;;;;;33.20;24.20;;;9.30;99.90;;;;;;5072009;28;20198;-66
2023/02/12 06:48:29;;;;;;;30.97;24.00;;;9.30;99.90;;;;;;5069941;28;20433;-66
2023/02/12 06:50:54;;;;;;;33.90;25.23;;;9.30;99.90;;;;;;5076340;28;20478;-66
2023/02/12 06:53:20;;;;;;;32.37;25.13;;;9.30;99.90;;;;;;5057197;28;20765;-67
2023/02/12 06:55:46;;;;;;;28.87;24.27;;;9.30;99.90;;;;;;5072742;28;20202;-66
2023/02/12 06:58:11;;;;;;;35.67;24.30;;;9.30;99.90;;;;;;5072567;28;20183;-66
2023/02/12 07:00:37;;;;;;;33.73;24.80;;;9.30;99.90;;;;;;5075913;28;20422;-66
2023/02/12 07:03:02;;;;;;;32.77;23.80;;;9.30;99.90;;;;;;5076072;28;20598;-67
2023/02/12 07:05:28;;;;;;;34.90;24.77;;;9.20;99.90;;;;;;5073745;28;20203;-66
2023/02/12 07:07:53;;;;;;;31.90;21.73;;;9.20;99.90;;;;;;5076669;28;20328;-66
2023/02/12 07:10:19;;;;;;;33.83;25.00;;;9.20;99.90;;;;;;5060404;28;20182;-66
2023/02/12 07:12:45;;;;;;;33.90;23.40;;;9.20;99.90;;;;;;5077177;28;20190;-67
2023/02/12 07:15:11;;;;;;;33.00;24.67;;;9.20;99.90;;;;;;5079353;28;20817;-66
2023/02/12 07:17:37;;;;;;;29.77;24.67;;;9.20;99.90;;;;;;5072126;28;20608;-66
2023/02/12 07:20:03;;;;;;;35.50;24.80;;;9.20;99.90;;;;;;5076500;28;20436;-66
2023/02/12 07:22:29;;;;;;;32.13;24.20;;;9.20;99.90;;;;;;5072713;28;20197;-66
2023/02/12 07:24:55;;;;;;;35.13;24.30;;;9.20;99.90;;;;;;5058041;28;20950;-66
2023/02/12 07:27:20;;;;;;;33.40;24.93;;;9.20;99.90;;;;;;5071218;28;20221;-65
2023/02/12 07:29:46;;;;;;;33.53;23.40;;;9.20;99.90;;;;;;5057993;28;20186;-66
2023/02/12 07:32:11;;;;;;;30.97;24.93;;;9.30;99.90;;;;;;5072470;28;20190;-66
2023/02/12 07:34:37;;;;;;;38.00;25.93;;;9.30;99.90;;;;;;5073499;28;20210;-66
2023/02/12 07:37:02;;;;;;;35.00;25.83;;;9.20;99.90;;;;;;5075761;28;20202;-66
2023/02/12 07:39:28;;;;;;;32.10;25.80;;;9.30;99.90;;;;;;5073668;28;20617;-66
2023/02/12 07:41:55;;;;;;;36.17;25.80;;;9.20;99.90;;;;;;5065754;28;20197;-66
2023/02/12 07:44:21;;;;;;;39.27;26.23;;;9.20;99.90;;;;;;5070382;28;20196;-66
2023/02/12 07:46:47;;;;;;;37.80;25.07;;;9.20;99.90;;;;;;5070074;28;20456;-67
2023/02/12 07:49:17;;;;;;;37.50;25.30;;;9.20;99.90;;;;;;5073909;28;20187;-67
2023/02/12 07:51:43;;;;;;;36.53;25.27;;;9.30;99.90;;;;;;5069065;28;20428;-66
2023/02/12 07:54:10;;;;;;;38.03;25.13;;;9.30;99.90;;;;;;5070468;28;20471;-66
2023/02/12 07:56:37;;;;;;;40.63;25.87;;;9.30;99.90;;;;;;5070154;28;20515;-66
2023/02/12 07:59:10;;;;;;;37.20;26.40;;;9.30;99.90;;;;;;5069604;28;20432;-67
2023/02/12 08:01:38;;;;;;;39.20;26.37;;;9.30;99.90;;;;;;5069151;28;20505;-66
2023/02/12 08:04:07;;;;;;;39.57;26.40;;;9.40;99.90;;;;;;5073634;28;20960;-66
2023/02/12 08:06:35;;;;;;;42.90;30.17;;;9.40;99.90;;;;;;5070342;28;22019;-66
2023/02/12 08:09:03;;;;;;;40.93;29.40;;;9.40;99.90;;;;;;5069600;28;20456;-66
2023/02/12 08:11:30;;;;;;;37.80;27.90;;;9.40;99.90;;;;;;5071059;28;20469;-66
2023/02/12 08:13:57;;;;;;;40.23;28.00;;;9.40;99.90;;;;;;5071576;28;20744;-66
2023/02/12 08:16:24;;;;;;;35.50;27.10;;;9.50;99.90;;;;;;5073761;28;20451;-66
2023/02/12 08:18:50;;;;;;;40.17;27.67;;;9.50;99.90;;;;;;5074601;28;20441;-66
2023/02/12 08:21:19;;;;;;;42.63;27.67;;;9.50;99.90;;;;;;5075268;28;20428;-66
2023/02/12 08:23:45;;;;;;;35.63;27.40;;;9.50;99.90;;;;;;5071761;28;20505;-65
2023/02/12 08:26:15;;;;;;;37.40;26.60;;;9.50;99.90;;;;;;5071650;28;20460;-65
2023/02/12 08:28:47;;;;;;;36.27;27.87;;;9.50;99.90;;;;;;5065005;28;20443;-68
2023/02/12 08:31:18;;;;;;;46.87;27.13;;;9.50;99.90;;;;;;5047939;28;20433;-66
2023/02/12 08:33:45;;;;;;;46.97;29.03;;;9.50;99.90;;;;;;5063933;28;20517;-67
2023/02/12 08:36:14;;;;;;;41.87;28.00;;;9.50;99.90;;;;;;5063873;28;20468;-67
2023/02/12 08:38:40;;;;;;;39.13;27.73;;;9.50;99.90;;;;;;5044272;28;20454;-68
2023/02/12 08:41:15;;;;;;;37.63;25.87;;;9.60;99.90;;;;;;5067967;28;20436;-67
2023/02/12 08:43:41;;;;;;;38.63;26.67;;;9.60;99.90;;;;;;5064495;28;20447;-67
2023/02/12 08:46:19;;;;;;;40.30;27.43;;;9.70;99.90;;;;;;5072884;28;20536;-68
2023/02/12 08:48:45;;;;;;;34.83;26.47;;;9.80;99.90;;;;;;5070437;28;21428;-66
2023/02/12 08:51:20;;;;;;;37.10;25.00;;;9.80;99.90;;;;;;5068234;28;20478;-67
2023/02/12 08:53:47;;;;;;;38.37;27.10;;;9.90;99.90;;;;;;5067591;28;20854;-67
2023/02/12 08:56:15;;;;;;;39.83;27.43;;;10.00;99.90;;;;;;5054415;28;20460;-66
2023/02/12 08:58:41;;;;;;;35.13;26.90;;;10.10;99.90;;;;;;5065848;28;20514;-67
2023/02/12 09:01:15;;;;;;;34.60;25.57;;;10.20;99.90;;;;;;5069238;28;20441;-66
2023/02/12 09:03:41;;;;;;;40.20;26.57;;;10.30;99.90;;;;;;5071921;28;20543;-67
2023/02/12 09:06:08;;;;;;;35.80;28.87;;;10.40;99.90;;;;;;5069510;28;20472;-67
2023/02/12 09:08:34;;;;;;;34.13;25.20;;;10.50;99.90;;;;;;5070419;28;20508;-66
2023/02/12 09:11:05;;;;;;;37.00;26.10;;;10.50;99.90;;;;;;5076421;28;21157;-67
2023/02/12 09:13:30;;;;;;;36.30;24.57;;;10.50;99.90;;;;;;5076011;28;20969;-66
2023/02/12 09:15:56;;;;;;;36.70;26.60;;;10.60;99.90;;;;;;5076494;28;20515;-66
2023/02/12 09:18:21;;;;;;;34.90;25.60;;;10.70;99.90;;;;;;5080362;28;20646;-66
2023/02/12 09:20:47;;;;;;;37.90;27.80;;;10.70;99.90;;;;;;5076544;28;20548;-66
2023/02/12 09:23:14;;;;;;;34.47;26.07;;;10.80;99.90;;;;;;5079820;28;20250;-68
2023/02/12 09:25:41;;;;;;;32.10;25.50;;;10.90;99.90;;;;;;5077213;28;20603;-68
2023/02/12 09:28:07;;;;;;;39.43;27.30;;;10.90;99.90;;;;;;5074277;28;20457;-67
2023/02/12 09:30:33;;;;;;;33.30;24.60;;;11.00;99.90;;;;;;5072522;28;20440;-67
2023/02/12 09:32:58;;;;;;;32.13;22.83;;;11.10;99.90;;;;;;5077889;28;20452;-68
2023/02/12 09:35:24;;;;;;;40.03;27.87;;;11.20;99.90;;;;;;5057407;28;20297;-67
2023/02/12 09:37:51;;;;;;;36.23;27.83;;;11.30;99.90;;;;;;5072992;28;20214;-68
2023/02/12 09:40:24;;;;;;;37.40;26.00;;;11.40;99.90;;;;;;5078396;28;20247;-65
2023/02/12 09:43:18;;;;;;;41.47;28.03;;;11.40;99.90;;;;;;5073813;28;20443;-65
2023/02/12 09:45:56;;;;;;;33.63;25.73;;;11.50;99.90;;;;;;5072158;28;20448;-67
2023/02/12 09:48:46;;;;;;;33.87;25.83;;;11.60;99.90;;;;;;5075657;28;20890;-66
2023/02/12 09:51:12;;;;;;;37.93;25.70;;;11.60;99.90;;;;;;5073386;28;20445;-65
2023/02/12 09:53:42;;;;;;;40.80;29.20;;;11.60;99.90;;;;;;5073629;28;20517;-65
2023/02/12 09:56:20;;;;;;;36.63;27.73;;;11.70;99.90;;;;;;5073544;28;20455;-65
2023/02/12 09:58:55;;;;;;;36.50;26.47;;;11.70;99.90;;;;;;5075281;28;20432;-65
2023/02/12 10:01:22;;;;;;;38.60;28.03;;;11.80;99.90;;;;;;5072103;28;20452;-65
2023/02/12 10:03:51;;;;;;;36.87;28.13;;;11.80;99.90;;;;;;5055115;28;20795;-67
2023/02/12 10:06:21;;;;;;;35.20;26.17;;;11.80;99.90;;;;;;5076371;28;20465;-65
2023/02/12 10:09:07;;;;;;;34.73;27.60;;;11.90;99.90;;;;;;5066505;28;20532;-66
2023/02/12 10:11:52;;;;;;;39.40;26.73;;;11.90;99.90;;;;;;5073883;28;20432;-66
2023/02/12 10:14:40;;;;;;;33.03;24.20;;;11.90;99.90;;;;;;5077427;28;20464;-66
2023/02/12 10:17:13;;;;;;;35.53;25.87;;;12.00;99.90;;;;;;5052563;28;20574;-67
2023/02/12 10:20:00;;;;;;;34.07;24.23;;;12.00;99.90;;;;;;5077924;28;20494;-66
2023/02/12 10:22:46;;;;;;;31.13;23.10;;;12.00;99.90;;;;;;5076463;28;20843;-66
2023/02/12 10:25:22;;;;;;;33.37;24.33;;;12.00;99.90;;;;;;5078010;28;20463;-66
2023/02/12 10:27:51;;;;;;;32.90;23.77;;;12.00;99.90;;;;;;5080836;28;21438;-66
2023/02/12 10:30:47;;;;;;;32.33;23.53;;;12.10;99.90;;;;;;5076818;28;20460;-65
2023/02/12 10:33:25;;;;;;;34.63;25.27;;;12.10;99.90;;;;;;5080243;28;20469;-66
2023/02/12 10:36:13;;;;;;;32.77;24.03;;;12.20;99.90;;;;;;5079715;28;20582;-66
2023/02/12 10:38:44;;;;;;;36.03;25.20;;;12.20;99.90;;;;;;5077883;28;20489;-67
2023/02/12 10:41:14;;;;;;;28.63;21.80;;;12.30;99.90;;;;;;5075498;28;20464;-66
2023/02/12 10:43:40;;;;;;;28.70;20.97;;;12.30;99.90;;;;;;5075954;28;20493;-66
2023/02/12 10:46:05;;;;;;;28.17;20.70;;;12.30;99.90;;;;;;5060750;28;20464;-66
2023/02/12 10:48:36;;;;;;;24.87;18.93;;;12.30;99.90;;;;;;5077893;28;20183;-66
2023/02/12 10:51:05;;;;;;;20.10;13.00;;;12.30;99.90;;;;;;5080426;28;20179;-66
2023/02/12 10:53:39;;;;;;;16.87;12.30;;;12.40;99.90;;;;;;5076310;28;20465;-66
2023/02/12 10:56:10;;;;;;;17.50;14.17;;;12.40;99.90;;;;;;5072266;28;20534;-67
2023/02/12 10:58:49;;;;;;;16.40;12.87;;;12.40;99.90;;;;;;5081287;28;20436;-66
2023/02/12 11:01:22;;;;;;;16.07;12.03;;;12.40;99.90;;;;;;5056837;28;20974;-67
2023/02/12 11:03:47;;;;;;;18.27;11.60;;;12.40;99.90;;;;;;5058189;28;20432;-66
2023/02/12 11:06:19;;;;;;;13.30;11.10;;;12.40;99.90;;;;;;5074628;28;20448;-67
2023/02/12 11:08:45;;;;;;;12.90;10.60;;;12.50;99.90;;;;;;5072598;28;20187;-66
2023/02/12 11:11:30;;;;;;;11.13;7.80;;;12.60;99.90;;;;;;5075709;28;20432;-67
2023/02/12 11:13:57;;;;;;;9.73;8.33;;;12.60;99.90;;;;;;5075634;28;20437;-66
2023/02/12 11:16:28;;;;;;;10.30;8.70;;;12.60;99.90;;;;;;5074986;28;20463;-66
2023/02/12 11:19:00;;;;;;;10.57;8.10;;;12.70;99.90;;;;;;5075228;28;20424;-66
2023/02/12 11:21:25;;;;;;;9.60;7.70;;;12.80;99.90;;;;;;5074939;28;20507;-66
2023/02/12 11:23:51;;;;;;;10.10;7.00;;;12.80;99.90;;;;;;5075806;28;20519;-66
2023/02/12 11:26:16;;;;;;;9.20;7.13;;;12.60;99.90;;;;;;5056700;28;20266;-66
2023/02/12 11:29:02;;;;;;;8.93;7.13;;;12.60;99.90;;;;;;5057453;28;20187;-67
2023/02/12 11:31:33;;;;;;;11.03;8.23;;;12.70;99.90;;;;;;5075082;28;20209;-66
2023/02/12 11:34:11;;;;;;;11.13;8.23;;;12.80;99.90;;;;;;5078406;28;20944;-67
2023/02/12 11:36:42;;;;;;;16.60;12.90;;;12.90;99.90;;;;;;5073420;28;20516;-66
2023/02/12 11:39:21;;;;;;;21.00;17.57;;;13.00;99.90;;;;;;5074093;28;20410;-66
2023/02/12 11:41:53;;;;;;;24.83;18.93;;;13.00;99.90;;;;;;5074339;28;20420;-66
2023/02/12 11:44:21;;;;;;;25.63;18.77;;;13.00;99.90;;;;;;5073031;28;20456;-67
2023/02/12 11:46:54;;;;;;;23.80;18.20;;;13.10;99.90;;;;;;5076938;28;20456;-66
2023/02/12 11:49:27;;;;;;;18.73;16.73;;;13.10;99.90;;;;;;5075534;28;20965;-66
2023/02/12 11:51:54;;;;;;;21.97;18.43;;;13.20;99.90;;;;;;5074679;28;20917;-66
2023/02/12 11:54:26;;;;;;;22.63;16.30;;;13.20;99.90;;;;;;5076676;28;20498;-67
2023/02/12 11:56:54;;;;;;;23.03;16.57;;;13.20;99.90;;;;;;5074718;28;20461;-66
2023/02/12 11:59:43;;;;;;;20.73;17.87;;;13.20;99.90;;;;;;5078522;28;20581;-66
2023/02/12 12:02:24;;;;;;;23.00;17.93;;;13.30;99.90;;;;;;5073952;28;20447;-66
2023/02/12 12:04:53;;;;;;;23.50;18.47;;;13.20;99.90;;;;;;5076584;28;20483;-66
2023/02/12 12:07:24;;;;;;;22.40;17.93;;;13.20;99.90;;;;;;5077490;28;20448;-67
2023/02/12 12:10:09;;;;;;;26.27;17.93;;;13.20;99.90;;;;;;5078622;28;20443;-67
2023/02/12 12:12:44;;;;;;;17.33;14.60;;;13.30;99.90;;;;;;5072947;28;20447;-67
2023/02/12 12:21:45;;;;;;;12.57;9.83;;;13.70;99.90;;;;;;5044460;28;20437;-67
2023/02/12 12:24:43;;;;;;;11.87;9.57;;;14.10;99.90;;;;;;5078718;28;20413;-67
2023/02/12 12:30:35;;;;;;;12.30;9.50;;;14.80;99.90;;;;;;5075219;28;20419;-67
2023/02/12 12:33:07;;;;;;;12.10;10.07;;;14.90;99.90;;;;;;5072959;28;20460;-67
2023/02/12 12:35:48;;;;;;;14.60;11.20;;;14.70;99.90;;;;;;5076525;28;20464;-67
2023/02/12 12:38:41;;;;;;;10.57;9.07;;;14.90;99.90;;;;;;5075789;28;20409;-67
2023/02/12 12:41:35;;;;;;;12.67;10.13;;;14.90;99.90;;;;;;5048214;28;20433;-67
2023/02/12 12:44:35;;;;;;;14.97;11.43;;;15.20;99.90;;;;;;5074127;28;20560;-67
2023/02/12 12:47:30;;;;;;;15.00;11.43;;;15.50;99.90;;;;;;5076194;28;20841;-67
2023/02/12 12:50:11;;;;;;;15.77;12.17;;;15.80;99.90;;;;;;5074683;28;20425;-67
2023/02/12 12:53:01;;;;;;;15.03;11.80;;;15.70;99.90;;;;;;5072473;28;20885;-67
2023/02/12 12:55:40;;;;;;;14.03;12.07;;;16.00;99.90;;;;;;5073784;28;20461;-67
2023/02/12 12:58:15;;;;;;;16.30;12.40;;;16.10;99.90;;;;;;5076483;28;20805;-67
2023/02/12 13:00:46;;;;;;;15.53;11.80;;;16.30;99.90;;;;;;5075396;28;20546;-67
2023/02/12 13:03:30;;;;;;;14.10;11.90;;;16.50;99.90;;;;;;5072700;28;20485;-67
2023/02/12 13:06:22;;;;;;;11.47;10.27;;;16.50;99.90;;;;;;5072769;28;20465;-67